sensor_id;sensor_type;location;lat;lon;timestamp;P1;durP1;ratioP1;P2;durP2;ratioP2
11064;SDS011;5585;52.530;7.320;2023-06-14T00:01:01;2.45;;;1.75;;
11064;SDS011;5585;52.530;7.320;2023-06-14T00:03:32;2.78;;;1.90;;
11064;SDS011;5585;52.530;7.320;2023-06-14T00:05:59;4.88;;;1.80;;
11064;SDS011;5585;52.530;7.320;2023-06-14T00:08:25;2.17;;;1.70;;
11064;SDS011;5585;52.530;7.320;2023-06-14T00:10:52;3.08;;;1.75;;
11064;SDS011;5585;52.530;7.320;2023-06-14T00:13:18;2.38;;;1.80;;
11064;SDS011;5585;52.530;7.320;2023-06-14T00:15:45;4.47;;;1.67;;
11064;SDS011;5585;52.530;7.320;2023-06-14T00:18:12;2.25;;;1.67;;
11064;SDS011;5585;52.530;7.320;2023-06-14T00:20:41;2.28;;;1.45;;
11064;SDS011;5585;52.530;7.320;2023-06-14T00:23:08;1.83;;;1.50;;
11064;SDS011;5585;52.530;7.320;2023-06-14T00:25:35;3.33;;;1.70;;
11064;SDS011;5585;52.530;7.320;2023-06-14T00:28:01;2.20;;;1.52;;
11064;SDS011;5585;52.530;7.320;2023-06-14T00:30:28;2.20;;;1.58;;
11064;SDS011;5585;52.530;7.320;2023-06-14T00:32:55;4.57;;;1.60;;
11064;SDS011;5585;52.530;7.320;2023-06-14T00:35:22;1.77;;;1.50;;
11064;SDS011;5585;52.530;7.320;2023-06-14T00:37:50;2.30;;;1.40;;
11064;SDS011;5585;52.530;7.320;2023-06-14T00:40:17;1.70;;;1.55;;
11064;SDS011;5585;52.530;7.320;2023-06-14T00:42:43;3.58;;;1.60;;
11064;SDS011;5585;52.530;7.320;2023-06-14T00:45:10;5.43;;;1.65;;
11064;SDS011;5585;52.530;7.320;2023-06-14T00:47:37;2.30;;;1.60;;
11064;SDS011;5585;52.530;7.320;2023-06-14T00:50:05;3.08;;;1.50;;
11064;SDS011;5585;52.530;7.320;2023-06-14T00:52:32;3.53;;;1.50;;
11064;SDS011;5585;52.530;7.320;2023-06-14T00:55:01;1.85;;;1.52;;
11064;SDS011;5585;52.530;7.320;2023-06-14T00:57:28;3.35;;;1.73;;
11064;SDS011;5585;52.530;7.320;2023-06-14T00:59:56;2.03;;;1.40;;
11064;SDS011;5585;52.530;7.320;2023-06-14T01:02:22;2.88;;;1.60;;
11064;SDS011;5585;52.530;7.320;2023-06-14T01:04:50;3.90;;;1.73;;
11064;SDS011;5585;52.530;7.320;2023-06-14T01:07:20;2.97;;;1.65;;
11064;SDS011;5585;52.530;7.320;2023-06-14T01:09:53;1.52;;;1.42;;
11064;SDS011;5585;52.530;7.320;2023-06-14T01:12:28;2.47;;;1.55;;
11064;SDS011;5585;52.530;7.320;2023-06-14T01:14:57;4.60;;;1.40;;
11064;SDS011;5585;52.530;7.320;2023-06-14T01:17:25;1.38;;;1.23;;
11064;SDS011;5585;52.530;7.320;2023-06-14T01:19:52;2.65;;;1.40;;
11064;SDS011;5585;52.530;7.320;2023-06-14T01:22:25;5.22;;;1.65;;
11064;SDS011;5585;52.530;7.320;2023-06-14T01:24:53;4.45;;;1.80;;
11064;SDS011;5585;52.530;7.320;2023-06-14T01:27:21;2.05;;;1.60;;
11064;SDS011;5585;52.530;7.320;2023-06-14T01:29:49;2.25;;;1.55;;
11064;SDS011;5585;52.530;7.320;2023-06-14T01:32:16;3.22;;;1.38;;
11064;SDS011;5585;52.530;7.320;2023-06-14T01:34:43;1.75;;;1.50;;
11064;SDS011;5585;52.530;7.320;2023-06-14T01:37:10;2.65;;;1.48;;
11064;SDS011;5585;52.530;7.320;2023-06-14T01:39:38;2.78;;;1.40;;
11064;SDS011;5585;52.530;7.320;2023-06-14T01:42:07;1.83;;;1.30;;
11064;SDS011;5585;52.530;7.320;2023-06-14T01:44:34;2.05;;;1.20;;
11064;SDS011;5585;52.530;7.320;2023-06-14T01:47:00;2.08;;;1.35;;
11064;SDS011;5585;52.530;7.320;2023-06-14T01:49:27;3.72;;;1.40;;
11064;SDS011;5585;52.530;7.320;2023-06-14T01:51:53;2.17;;;1.55;;
11064;SDS011;5585;52.530;7.320;2023-06-14T01:54:20;1.90;;;1.45;;
11064;SDS011;5585;52.530;7.320;2023-06-14T01:56:47;1.42;;;1.17;;
11064;SDS011;5585;52.530;7.320;2023-06-14T01:59:15;1.75;;;1.60;;
11064;SDS011;5585;52.530;7.320;2023-06-14T02:01:42;2.80;;;1.60;;
11064;SDS011;5585;52.530;7.320;2023-06-14T02:04:09;1.80;;;1.40;;
11064;SDS011;5585;52.530;7.320;2023-06-14T02:06:36;2.50;;;1.48;;
11064;SDS011;5585;52.530;7.320;2023-06-14T02:09:03;3.00;;;1.38;;
11064;SDS011;5585;52.530;7.320;2023-06-14T02:11:29;1.95;;;1.20;;
11064;SDS011;5585;52.530;7.320;2023-06-14T02:13:56;3.25;;;1.30;;
11064;SDS011;5585;52.530;7.320;2023-06-14T02:16:26;3.15;;;1.30;;
11064;SDS011;5585;52.530;7.320;2023-06-14T02:18:54;1.55;;;1.42;;
11064;SDS011;5585;52.530;7.320;2023-06-14T02:21:22;2.10;;;1.40;;
11064;SDS011;5585;52.530;7.320;2023-06-14T02:23:48;1.73;;;1.30;;
11064;SDS011;5585;52.530;7.320;2023-06-14T02:26:15;2.63;;;1.40;;
11064;SDS011;5585;52.530;7.320;2023-06-14T02:28:41;2.42;;;1.35;;
11064;SDS011;5585;52.530;7.320;2023-06-14T02:31:08;1.92;;;1.30;;
11064;SDS011;5585;52.530;7.320;2023-06-14T02:33:36;1.98;;;1.35;;
11064;SDS011;5585;52.530;7.320;2023-06-14T02:36:06;2.45;;;1.20;;
11064;SDS011;5585;52.530;7.320;2023-06-14T02:38:32;3.53;;;1.90;;
11064;SDS011;5585;52.530;7.320;2023-06-14T02:40:59;2.60;;;1.42;;
11064;SDS011;5585;52.530;7.320;2023-06-14T02:43:28;1.42;;;1.20;;
11064;SDS011;5585;52.530;7.320;2023-06-14T02:45:55;1.70;;;1.30;;
11064;SDS011;5585;52.530;7.320;2023-06-14T02:48:21;2.38;;;1.42;;
11064;SDS011;5585;52.530;7.320;2023-06-14T02:50:49;2.63;;;1.20;;
11064;SDS011;5585;52.530;7.320;2023-06-14T02:53:16;4.65;;;1.58;;
11064;SDS011;5585;52.530;7.320;2023-06-14T02:55:43;2.15;;;1.33;;
11064;SDS011;5585;52.530;7.320;2023-06-14T02:58:10;2.60;;;1.67;;
11064;SDS011;5585;52.530;7.320;2023-06-14T03:00:36;1.83;;;1.30;;
11064;SDS011;5585;52.530;7.320;2023-06-14T03:03:03;1.70;;;1.40;;
11064;SDS011;5585;52.530;7.320;2023-06-14T03:05:37;2.25;;;1.67;;
11064;SDS011;5585;52.530;7.320;2023-06-14T03:08:07;2.60;;;1.67;;
11064;SDS011;5585;52.530;7.320;2023-06-14T03:10:34;2.78;;;1.65;;
11064;SDS011;5585;52.530;7.320;2023-06-14T03:13:01;1.67;;;1.35;;
11064;SDS011;5585;52.530;7.320;2023-06-14T03:15:28;2.08;;;1.30;;
11064;SDS011;5585;52.530;7.320;2023-06-14T03:17:56;1.95;;;1.40;;
11064;SDS011;5585;52.530;7.320;2023-06-14T03:20:24;1.60;;;1.50;;
11064;SDS011;5585;52.530;7.320;2023-06-14T03:22:58;2.22;;;1.30;;
11064;SDS011;5585;52.530;7.320;2023-06-14T03:25:27;2.15;;;1.20;;
11064;SDS011;5585;52.530;7.320;2023-06-14T03:27:54;2.85;;;1.58;;
11064;SDS011;5585;52.530;7.320;2023-06-14T03:30:21;6.38;;;1.75;;
11064;SDS011;5585;52.530;7.320;2023-06-14T03:32:47;2.65;;;1.52;;
11064;SDS011;5585;52.530;7.320;2023-06-14T03:35:14;1.73;;;1.40;;
11064;SDS011;5585;52.530;7.320;2023-06-14T03:37:42;1.98;;;1.70;;
11064;SDS011;5585;52.530;7.320;2023-06-14T03:40:09;2.30;;;1.67;;
11064;SDS011;5585;52.530;7.320;2023-06-14T03:42:37;1.73;;;1.63;;
11064;SDS011;5585;52.530;7.320;2023-06-14T03:45:07;3.58;;;1.70;;
11064;SDS011;5585;52.530;7.320;2023-06-14T03:47:34;2.35;;;1.60;;
11064;SDS011;5585;52.530;7.320;2023-06-14T03:50:01;2.45;;;1.75;;
11064;SDS011;5585;52.530;7.320;2023-06-14T03:52:28;2.95;;;1.55;;
11064;SDS011;5585;52.530;7.320;2023-06-14T03:54:54;1.83;;;1.50;;
11064;SDS011;5585;52.530;7.320;2023-06-14T03:57:21;1.92;;;1.40;;
11064;SDS011;5585;52.530;7.320;2023-06-14T03:59:49;3.13;;;1.60;;
11064;SDS011;5585;52.530;7.320;2023-06-14T04:02:16;3.22;;;1.75;;
11064;SDS011;5585;52.530;7.320;2023-06-14T04:04:43;3.95;;;1.42;;
11064;SDS011;5585;52.530;7.320;2023-06-14T04:07:10;1.92;;;1.65;;
11064;SDS011;5585;52.530;7.320;2023-06-14T04:09:37;3.47;;;1.67;;
11064;SDS011;5585;52.530;7.320;2023-06-14T04:12:04;3.35;;;1.70;;
11064;SDS011;5585;52.530;7.320;2023-06-14T04:14:31;3.72;;;1.67;;
11064;SDS011;5585;52.530;7.320;2023-06-14T04:16:59;2.70;;;1.70;;
11064;SDS011;5585;52.530;7.320;2023-06-14T04:19:26;2.08;;;1.60;;
11064;SDS011;5585;52.530;7.320;2023-06-14T04:21:53;2.95;;;1.98;;
11064;SDS011;5585;52.530;7.320;2023-06-14T04:24:19;1.92;;;1.55;;
11064;SDS011;5585;52.530;7.320;2023-06-14T04:26:46;1.80;;;1.67;;
11064;SDS011;5585;52.530;7.320;2023-06-14T04:29:14;2.10;;;1.70;;
11064;SDS011;5585;52.530;7.320;2023-06-14T04:31:45;2.30;;;2.03;;
11064;SDS011;5585;52.530;7.320;2023-06-14T04:34:13;1.80;;;1.70;;
11064;SDS011;5585;52.530;7.320;2023-06-14T04:36:41;2.10;;;1.60;;
11064;SDS011;5585;52.530;7.320;2023-06-14T04:39:08;4.07;;;1.80;;
11064;SDS011;5585;52.530;7.320;2023-06-14T04:41:34;2.78;;;1.85;;
11064;SDS011;5585;52.530;7.320;2023-06-14T04:44:02;2.05;;;1.83;;
11064;SDS011;5585;52.530;7.320;2023-06-14T04:46:28;2.05;;;1.67;;
11064;SDS011;5585;52.530;7.320;2023-06-14T04:48:57;4.97;;;1.80;;
11064;SDS011;5585;52.530;7.320;2023-06-14T04:51:28;2.00;;;1.67;;
11064;SDS011;5585;52.530;7.320;2023-06-14T04:53:56;2.53;;;1.98;;
11064;SDS011;5585;52.530;7.320;2023-06-14T04:56:23;2.00;;;1.80;;
11064;SDS011;5585;52.530;7.320;2023-06-14T04:58:50;2.42;;;2.17;;
11064;SDS011;5585;52.530;7.320;2023-06-14T05:01:17;2.95;;;2.22;;
11064;SDS011;5585;52.530;7.320;2023-06-14T05:03:43;2.58;;;1.73;;
11064;SDS011;5585;52.530;7.320;2023-06-14T05:06:10;2.65;;;1.70;;
11064;SDS011;5585;52.530;7.320;2023-06-14T05:08:39;3.53;;;1.73;;
11064;SDS011;5585;52.530;7.320;2023-06-14T05:11:05;2.58;;;1.90;;
11064;SDS011;5585;52.530;7.320;2023-06-14T05:13:32;3.10;;;1.92;;
11064;SDS011;5585;52.530;7.320;2023-06-14T05:15:59;3.40;;;1.83;;
11064;SDS011;5585;52.530;7.320;2023-06-14T05:18:26;2.58;;;1.80;;
11064;SDS011;5585;52.530;7.320;2023-06-14T05:20:53;2.05;;;1.80;;
11064;SDS011;5585;52.530;7.320;2023-06-14T05:23:19;2.33;;;2.10;;
11064;SDS011;5585;52.530;7.320;2023-06-14T05:25:48;3.17;;;2.05;;
11064;SDS011;5585;52.530;7.320;2023-06-14T05:28:14;4.22;;;2.30;;
11064;SDS011;5585;52.530;7.320;2023-06-14T05:30:41;2.13;;;1.80;;
11064;SDS011;5585;52.530;7.320;2023-06-14T05:33:08;4.80;;;2.10;;
11064;SDS011;5585;52.530;7.320;2023-06-14T05:35:35;2.33;;;2.05;;
11064;SDS011;5585;52.530;7.320;2023-06-14T05:38:03;2.83;;;2.13;;
11064;SDS011;5585;52.530;7.320;2023-06-14T05:40:29;3.78;;;2.10;;
11064;SDS011;5585;52.530;7.320;2023-06-14T05:42:57;5.10;;;2.20;;
11064;SDS011;5585;52.530;7.320;2023-06-14T05:45:24;3.42;;;1.92;;
11064;SDS011;5585;52.530;7.320;2023-06-14T05:47:50;2.17;;;1.85;;
11064;SDS011;5585;52.530;7.320;2023-06-14T05:50:17;4.93;;;2.50;;
11064;SDS011;5585;52.530;7.320;2023-06-14T05:52:43;3.15;;;2.10;;
11064;SDS011;5585;52.530;7.320;2023-06-14T05:55:10;1.92;;;1.80;;
11064;SDS011;5585;52.530;7.320;2023-06-14T05:57:38;2.90;;;1.98;;
11064;SDS011;5585;52.530;7.320;2023-06-14T06:00:07;2.22;;;2.00;;
11064;SDS011;5585;52.530;7.320;2023-06-14T06:02:36;4.22;;;2.00;;
11064;SDS011;5585;52.530;7.320;2023-06-14T06:05:02;2.58;;;2.10;;
11064;SDS011;5585;52.530;7.320;2023-06-14T06:07:29;3.00;;;2.13;;
11064;SDS011;5585;52.530;7.320;2023-06-14T06:09:56;3.05;;;2.17;;
11064;SDS011;5585;52.530;7.320;2023-06-14T06:12:22;1.95;;;1.60;;
11064;SDS011;5585;52.530;7.320;2023-06-14T06:14:48;2.55;;;1.90;;
11064;SDS011;5585;52.530;7.320;2023-06-14T06:17:16;2.72;;;1.75;;
11064;SDS011;5585;52.530;7.320;2023-06-14T06:19:43;2.05;;;1.85;;
11064;SDS011;5585;52.530;7.320;2023-06-14T06:22:10;2.92;;;2.10;;
11064;SDS011;5585;52.530;7.320;2023-06-14T06:24:37;4.22;;;2.13;;
11064;SDS011;5585;52.530;7.320;2023-06-14T06:27:04;4.38;;;2.00;;
11064;SDS011;5585;52.530;7.320;2023-06-14T06:29:33;3.20;;;2.08;;
11064;SDS011;5585;52.530;7.320;2023-06-14T06:32:00;4.03;;;1.90;;
11064;SDS011;5585;52.530;7.320;2023-06-14T06:34:28;3.47;;;1.58;;
11064;SDS011;5585;52.530;7.320;2023-06-14T06:36:54;2.53;;;2.15;;
11064;SDS011;5585;52.530;7.320;2023-06-14T06:39:21;3.55;;;2.05;;
11064;SDS011;5585;52.530;7.320;2023-06-14T06:41:47;3.15;;;1.80;;
11064;SDS011;5585;52.530;7.320;2023-06-14T06:44:14;1.85;;;1.42;;
11064;SDS011;5585;52.530;7.320;2023-06-14T06:46:41;2.20;;;1.77;;
11064;SDS011;5585;52.530;7.320;2023-06-14T06:49:08;2.90;;;1.90;;
11064;SDS011;5585;52.530;7.320;2023-06-14T06:51:36;1.88;;;1.67;;
11064;SDS011;5585;52.530;7.320;2023-06-14T06:54:02;2.00;;;1.75;;
11064;SDS011;5585;52.530;7.320;2023-06-14T06:56:31;4.13;;;1.90;;
11064;SDS011;5585;52.530;7.320;2023-06-14T06:58:57;2.20;;;2.00;;
11064;SDS011;5585;52.530;7.320;2023-06-14T07:01:24;3.53;;;2.08;;
11064;SDS011;5585;52.530;7.320;2023-06-14T07:03:51;3.10;;;1.55;;
11064;SDS011;5585;52.530;7.320;2023-06-14T07:06:17;3.20;;;1.50;;
11064;SDS011;5585;52.530;7.320;2023-06-14T07:08:46;2.60;;;1.33;;
11064;SDS011;5585;52.530;7.320;2023-06-14T07:11:13;2.22;;;1.50;;
11064;SDS011;5585;52.530;7.320;2023-06-14T07:13:40;3.47;;;1.80;;
11064;SDS011;5585;52.530;7.320;2023-06-14T07:16:06;1.83;;;1.48;;
11064;SDS011;5585;52.530;7.320;2023-06-14T07:18:33;2.20;;;1.27;;
11064;SDS011;5585;52.530;7.320;2023-06-14T07:20:59;1.92;;;1.40;;
11064;SDS011;5585;52.530;7.320;2023-06-14T07:23:26;1.65;;;1.48;;
11064;SDS011;5585;52.530;7.320;2023-06-14T07:25:54;2.15;;;1.48;;
11064;SDS011;5585;52.530;7.320;2023-06-14T07:28:20;1.90;;;1.70;;
11064;SDS011;5585;52.530;7.320;2023-06-14T07:30:47;2.65;;;1.63;;
11064;SDS011;5585;52.530;7.320;2023-06-14T07:33:13;2.25;;;1.30;;
11064;SDS011;5585;52.530;7.320;2023-06-14T07:35:40;2.05;;;1.23;;
11064;SDS011;5585;52.530;7.320;2023-06-14T07:38:06;2.35;;;1.52;;
11064;SDS011;5585;52.530;7.320;2023-06-14T07:40:33;2.53;;;1.70;;
11064;SDS011;5585;52.530;7.320;2023-06-14T07:43:01;2.55;;;1.20;;
11064;SDS011;5585;52.530;7.320;2023-06-14T07:45:27;2.08;;;1.42;;
11064;SDS011;5585;52.530;7.320;2023-06-14T07:47:54;3.92;;;1.55;;
11064;SDS011;5585;52.530;7.320;2023-06-14T07:50:21;2.13;;;1.35;;
11064;SDS011;5585;52.530;7.320;2023-06-14T07:52:48;1.77;;;1.27;;
11064;SDS011;5585;52.530;7.320;2023-06-14T07:55:15;1.73;;;1.50;;
11064;SDS011;5585;52.530;7.320;2023-06-14T07:57:44;2.10;;;1.40;;
11064;SDS011;5585;52.530;7.320;2023-06-14T08:00:13;2.58;;;1.40;;
11064;SDS011;5585;52.530;7.320;2023-06-14T08:02:43;1.77;;;1.23;;
11064;SDS011;5585;52.530;7.320;2023-06-14T08:05:10;2.17;;;1.67;;
11064;SDS011;5585;52.530;7.320;2023-06-14T08:07:36;3.45;;;1.50;;
11064;SDS011;5585;52.530;7.320;2023-06-14T08:10:03;3.63;;;2.08;;
11064;SDS011;5585;52.530;7.320;2023-06-14T08:12:30;4.00;;;1.90;;
11064;SDS011;5585;52.530;7.320;2023-06-14T08:14:57;2.08;;;1.50;;
11064;SDS011;5585;52.530;7.320;2023-06-14T08:17:24;2.25;;;1.60;;
11064;SDS011;5585;52.530;7.320;2023-06-14T08:19:51;3.63;;;1.60;;
11064;SDS011;5585;52.530;7.320;2023-06-14T08:22:19;2.10;;;1.50;;
11064;SDS011;5585;52.530;7.320;2023-06-14T08:24:46;2.10;;;1.58;;
11064;SDS011;5585;52.530;7.320;2023-06-14T08:27:13;4.47;;;1.80;;
11064;SDS011;5585;52.530;7.320;2023-06-14T08:29:40;2.65;;;1.77;;
11064;SDS011;5585;52.530;7.320;2023-06-14T08:32:07;2.60;;;1.70;;
11064;SDS011;5585;52.530;7.320;2023-06-14T08:34:35;1.40;;;1.20;;
11064;SDS011;5585;52.530;7.320;2023-06-14T08:37:02;9.88;;;2.95;;
11064;SDS011;5585;52.530;7.320;2023-06-14T08:39:28;4.68;;;1.63;;
11064;SDS011;5585;52.530;7.320;2023-06-14T08:41:55;1.50;;;1.30;;
11064;SDS011;5585;52.530;7.320;2023-06-14T08:44:23;3.25;;;1.40;;
11064;SDS011;5585;52.530;7.320;2023-06-14T08:46:49;2.40;;;1.30;;
11064;SDS011;5585;52.530;7.320;2023-06-14T08:49:18;4.38;;;1.90;;
11064;SDS011;5585;52.530;7.320;2023-06-14T08:51:47;4.00;;;1.77;;
11064;SDS011;5585;52.530;7.320;2023-06-14T08:54:17;2.47;;;1.52;;
11064;SDS011;5585;52.530;7.320;2023-06-14T08:56:46;4.18;;;1.45;;
11064;SDS011;5585;52.530;7.320;2023-06-14T08:59:13;1.60;;;1.40;;
11064;SDS011;5585;52.530;7.320;2023-06-14T09:01:40;4.30;;;1.80;;
11064;SDS011;5585;52.530;7.320;2023-06-14T09:04:06;2.53;;;1.60;;
11064;SDS011;5585;52.530;7.320;2023-06-14T09:06:33;2.35;;;1.40;;
11064;SDS011;5585;52.530;7.320;2023-06-14T09:09:03;1.77;;;1.20;;
11064;SDS011;5585;52.530;7.320;2023-06-14T09:11:30;2.63;;;1.40;;
11064;SDS011;5585;52.530;7.320;2023-06-14T09:13:57;1.98;;;1.30;;
11064;SDS011;5585;52.530;7.320;2023-06-14T09:16:23;3.00;;;1.50;;
11064;SDS011;5585;52.530;7.320;2023-06-14T09:18:51;2.17;;;1.10;;
11064;SDS011;5585;52.530;7.320;2023-06-14T09:21:18;2.20;;;1.55;;
11064;SDS011;5585;52.530;7.320;2023-06-14T09:23:46;1.70;;;1.60;;
11064;SDS011;5585;52.530;7.320;2023-06-14T09:26:15;1.88;;;1.27;;
11064;SDS011;5585;52.530;7.320;2023-06-14T09:28:42;2.70;;;1.30;;
11064;SDS011;5585;52.530;7.320;2023-06-14T09:31:10;2.92;;;1.55;;
11064;SDS011;5585;52.530;7.320;2023-06-14T09:33:37;1.55;;;1.27;;
11064;SDS011;5585;52.530;7.320;2023-06-14T09:36:03;1.95;;;1.45;;
11064;SDS011;5585;52.530;7.320;2023-06-14T09:38:30;2.42;;;1.30;;
11064;SDS011;5585;52.530;7.320;2023-06-14T09:41:00;2.67;;;1.38;;
11064;SDS011;5585;52.530;7.320;2023-06-14T09:43:31;1.20;;;1.10;;
11064;SDS011;5585;52.530;7.320;2023-06-14T09:45:59;1.40;;;1.30;;
11064;SDS011;5585;52.530;7.320;2023-06-14T09:48:26;2.28;;;1.25;;
11064;SDS011;5585;52.530;7.320;2023-06-14T09:50:53;1.88;;;1.35;;
11064;SDS011;5585;52.530;7.320;2023-06-14T09:53:21;1.58;;;1.20;;
11064;SDS011;5585;52.530;7.320;2023-06-14T09:55:50;1.85;;;1.27;;
11064;SDS011;5585;52.530;7.320;2023-06-14T09:58:18;1.55;;;1.20;;
11064;SDS011;5585;52.530;7.320;2023-06-14T10:00:47;1.77;;;1.10;;
11064;SDS011;5585;52.530;7.320;2023-06-14T10:03:19;1.60;;;1.17;;
11064;SDS011;5585;52.530;7.320;2023-06-14T10:05:47;1.75;;;1.40;;
11064;SDS011;5585;52.530;7.320;2023-06-14T10:08:15;2.85;;;1.35;;
11064;SDS011;5585;52.530;7.320;2023-06-14T10:10:42;3.22;;;1.40;;
11064;SDS011;5585;52.530;7.320;2023-06-14T10:13:09;6.38;;;1.40;;
11064;SDS011;5585;52.530;7.320;2023-06-14T10:15:38;1.60;;;1.33;;
11064;SDS011;5585;52.530;7.320;2023-06-14T10:18:11;1.77;;;1.40;;
11064;SDS011;5585;52.530;7.320;2023-06-14T10:20:48;1.50;;;1.20;;
11064;SDS011;5585;52.530;7.320;2023-06-14T10:23:17;4.45;;;1.65;;
11064;SDS011;5585;52.530;7.320;2023-06-14T10:25:45;4.30;;;1.58;;
11064;SDS011;5585;52.530;7.320;2023-06-14T10:28:15;3.00;;;1.45;;
11064;SDS011;5585;52.530;7.320;2023-06-14T10:33:26;2.78;;;1.30;;
11064;SDS011;5585;52.530;7.320;2023-06-14T10:36:06;1.73;;;1.42;;
11064;SDS011;5585;52.530;7.320;2023-06-14T10:38:33;1.33;;;1.05;;
11064;SDS011;5585;52.530;7.320;2023-06-14T10:41:00;2.50;;;1.20;;
11064;SDS011;5585;52.530;7.320;2023-06-14T10:43:27;2.75;;;1.15;;
11064;SDS011;5585;52.530;7.320;2023-06-14T10:48:41;1.60;;;1.10;;
11064;SDS011;5585;52.530;7.320;2023-06-14T10:51:14;1.92;;;1.10;;
11064;SDS011;5585;52.530;7.320;2023-06-14T10:53:45;1.40;;;0.90;;
11064;SDS011;5585;52.530;7.320;2023-06-14T10:56:20;2.30;;;1.30;;
11064;SDS011;5585;52.530;7.320;2023-06-14T10:58:52;2.17;;;1.00;;
11064;SDS011;5585;52.530;7.320;2023-06-14T11:01:19;3.88;;;1.50;;
11064;SDS011;5585;52.530;7.320;2023-06-14T11:03:51;3.22;;;1.13;;
11064;SDS011;5585;52.530;7.320;2023-06-14T11:06:20;1.65;;;1.25;;
11064;SDS011;5585;52.530;7.320;2023-06-14T11:11:31;2.17;;;1.35;;
11064;SDS011;5585;52.530;7.320;2023-06-14T11:13:58;1.92;;;1.40;;
11064;SDS011;5585;52.530;7.320;2023-06-14T11:16:26;3.15;;;1.35;;
11064;SDS011;5585;52.530;7.320;2023-06-14T11:18:55;1.05;;;0.95;;
11064;SDS011;5585;52.530;7.320;2023-06-14T11:21:25;1.00;;;0.90;;
11064;SDS011;5585;52.530;7.320;2023-06-14T11:23:56;1.40;;;1.20;;
11064;SDS011;5585;52.530;7.320;2023-06-14T11:26:26;3.38;;;1.13;;
11064;SDS011;5585;52.530;7.320;2023-06-14T11:28:57;0.90;;;0.90;;
11064;SDS011;5585;52.530;7.320;2023-06-14T11:31:25;1.27;;;1.17;;
11064;SDS011;5585;52.530;7.320;2023-06-14T11:33:54;1.73;;;1.00;;
11064;SDS011;5585;52.530;7.320;2023-06-14T11:36:22;2.40;;;1.20;;
11064;SDS011;5585;52.530;7.320;2023-06-14T11:38:48;2.17;;;1.20;;
11064;SDS011;5585;52.530;7.320;2023-06-14T11:41:15;1.40;;;1.05;;
11064;SDS011;5585;52.530;7.320;2023-06-14T11:43:42;2.22;;;1.48;;
11064;SDS011;5585;52.530;7.320;2023-06-14T11:46:14;1.95;;;1.17;;
11064;SDS011;5585;52.530;7.320;2023-06-14T11:48:43;1.20;;;1.10;;
11064;SDS011;5585;52.530;7.320;2023-06-14T11:51:11;1.90;;;0.98;;
11064;SDS011;5585;52.530;7.320;2023-06-14T11:53:38;1.90;;;1.10;;
11064;SDS011;5585;52.530;7.320;2023-06-14T11:56:05;2.03;;;1.20;;
11064;SDS011;5585;52.530;7.320;2023-06-14T11:58:32;2.30;;;1.40;;
11064;SDS011;5585;52.530;7.320;2023-06-14T12:00:58;2.35;;;1.30;;
11064;SDS011;5585;52.530;7.320;2023-06-14T12:03:25;3.05;;;1.10;;
11064;SDS011;5585;52.530;7.320;2023-06-14T12:06:01;1.88;;;1.30;;
11064;SDS011;5585;52.530;7.320;2023-06-14T12:08:33;1.30;;;1.20;;
11064;SDS011;5585;52.530;7.320;2023-06-14T12:11:04;1.45;;;1.20;;
11064;SDS011;5585;52.530;7.320;2023-06-14T12:13:31;1.80;;;1.15;;
11064;SDS011;5585;52.530;7.320;2023-06-14T12:15:57;3.28;;;1.20;;
11064;SDS011;5585;52.530;7.320;2023-06-14T12:18:31;1.35;;;1.10;;
11064;SDS011;5585;52.530;7.320;2023-06-14T12:20:59;3.72;;;1.10;;
11064;SDS011;5585;52.530;7.320;2023-06-14T12:23:39;1.48;;;1.30;;
11064;SDS011;5585;52.530;7.320;2023-06-14T12:26:06;1.65;;;1.20;;
11064;SDS011;5585;52.530;7.320;2023-06-14T12:28:32;1.20;;;1.10;;
11064;SDS011;5585;52.530;7.320;2023-06-14T12:30:59;1.40;;;1.10;;
11064;SDS011;5585;52.530;7.320;2023-06-14T12:33:25;4.32;;;1.27;;
11064;SDS011;5585;52.530;7.320;2023-06-14T12:35:54;2.25;;;1.23;;
11064;SDS011;5585;52.530;7.320;2023-06-14T12:38:21;2.50;;;1.02;;
11064;SDS011;5585;52.530;7.320;2023-06-14T12:40:49;1.10;;;1.00;;
11064;SDS011;5585;52.530;7.320;2023-06-14T12:43:16;2.08;;;1.08;;
11064;SDS011;5585;52.530;7.320;2023-06-14T12:45:42;1.17;;;1.05;;
11064;SDS011;5585;52.530;7.320;2023-06-14T12:48:09;1.33;;;1.00;;
11064;SDS011;5585;52.530;7.320;2023-06-14T12:50:35;1.20;;;1.02;;
11064;SDS011;5585;52.530;7.320;2023-06-14T12:53:02;1.33;;;1.20;;
11064;SDS011;5585;52.530;7.320;2023-06-14T12:55:29;1.88;;;1.10;;
11064;SDS011;5585;52.530;7.320;2023-06-14T12:57:57;1.67;;;1.00;;
11064;SDS011;5585;52.530;7.320;2023-06-14T13:00:24;2.05;;;1.20;;
11064;SDS011;5585;52.530;7.320;2023-06-14T13:02:51;3.88;;;1.40;;
11064;SDS011;5585;52.530;7.320;2023-06-14T13:05:18;1.52;;;1.20;;
11064;SDS011;5585;52.530;7.320;2023-06-14T13:07:45;1.85;;;1.20;;
11064;SDS011;5585;52.530;7.320;2023-06-14T13:10:11;3.13;;;1.38;;
11064;SDS011;5585;52.530;7.320;2023-06-14T13:12:38;3.00;;;1.00;;
11064;SDS011;5585;52.530;7.320;2023-06-14T13:15:07;1.30;;;1.20;;
11064;SDS011;5585;52.530;7.320;2023-06-14T13:17:33;2.45;;;1.00;;
11064;SDS011;5585;52.530;7.320;2023-06-14T13:20:03;1.25;;;1.00;;
11064;SDS011;5585;52.530;7.320;2023-06-14T13:22:30;1.00;;;0.90;;
11064;SDS011;5585;52.530;7.320;2023-06-14T13:24:56;1.17;;;1.08;;
11064;SDS011;5585;52.530;7.320;2023-06-14T13:27:23;3.70;;;1.23;;
11064;SDS011;5585;52.530;7.320;2023-06-14T13:29:50;2.55;;;1.08;;
11064;SDS011;5585;52.530;7.320;2023-06-14T13:32:18;3.50;;;1.10;;
11064;SDS011;5585;52.530;7.320;2023-06-14T13:34:44;2.22;;;1.10;;
11064;SDS011;5585;52.530;7.320;2023-06-14T13:37:11;1.33;;;1.20;;
11064;SDS011;5585;52.530;7.320;2023-06-14T13:39:37;1.35;;;0.93;;
11064;SDS011;5585;52.530;7.320;2023-06-14T13:42:04;1.63;;;0.98;;
11064;SDS011;5585;52.530;7.320;2023-06-14T13:44:31;1.80;;;1.35;;
11064;SDS011;5585;52.530;7.320;2023-06-14T13:46:57;1.30;;;1.20;;
11064;SDS011;5585;52.530;7.320;2023-06-14T13:49:25;1.73;;;1.15;;
11064;SDS011;5585;52.530;7.320;2023-06-14T13:51:52;1.25;;;1.02;;
11064;SDS011;5585;52.530;7.320;2023-06-14T13:54:19;1.13;;;1.02;;
11064;SDS011;5585;52.530;7.320;2023-06-14T13:56:46;1.83;;;1.40;;
11064;SDS011;5585;52.530;7.320;2023-06-14T13:59:13;1.50;;;1.13;;
11064;SDS011;5585;52.530;7.320;2023-06-14T14:01:39;1.73;;;1.60;;
11064;SDS011;5585;52.530;7.320;2023-06-14T14:04:06;2.97;;;1.40;;
11064;SDS011;5585;52.530;7.320;2023-06-14T14:06:34;1.90;;;1.17;;
11064;SDS011;5585;52.530;7.320;2023-06-14T14:09:01;1.83;;;1.20;;
11064;SDS011;5585;52.530;7.320;2023-06-14T14:11:28;2.83;;;1.17;;
11064;SDS011;5585;52.530;7.320;2023-06-14T14:13:57;1.73;;;1.30;;
11064;SDS011;5585;52.530;7.320;2023-06-14T14:16:23;2.08;;;1.23;;
11064;SDS011;5585;52.530;7.320;2023-06-14T14:18:50;3.60;;;1.40;;
11064;SDS011;5585;52.530;7.320;2023-06-14T14:21:16;4.10;;;1.63;;
11064;SDS011;5585;52.530;7.320;2023-06-14T14:23:44;3.45;;;1.40;;
11064;SDS011;5585;52.530;7.320;2023-06-14T14:26:11;1.65;;;1.10;;
11064;SDS011;5585;52.530;7.320;2023-06-14T14:28:38;1.40;;;1.30;;
11064;SDS011;5585;52.530;7.320;2023-06-14T14:31:04;2.10;;;1.20;;
11064;SDS011;5585;52.530;7.320;2023-06-14T14:33:31;2.42;;;1.30;;
11064;SDS011;5585;52.530;7.320;2023-06-14T14:35:57;3.17;;;1.50;;
11064;SDS011;5585;52.530;7.320;2023-06-14T14:38:28;2.20;;;1.20;;
11064;SDS011;5585;52.530;7.320;2023-06-14T14:40:56;2.45;;;1.52;;
11064;SDS011;5585;52.530;7.320;2023-06-14T14:43:23;2.80;;;1.40;;
11064;SDS011;5585;52.530;7.320;2023-06-14T14:45:49;1.75;;;1.40;;
11064;SDS011;5585;52.530;7.320;2023-06-14T14:48:16;3.25;;;1.35;;
11064;SDS011;5585;52.530;7.320;2023-06-14T14:50:42;2.08;;;1.40;;
11064;SDS011;5585;52.530;7.320;2023-06-14T14:53:09;1.55;;;1.30;;
11064;SDS011;5585;52.530;7.320;2023-06-14T14:55:35;3.05;;;1.38;;
11064;SDS011;5585;52.530;7.320;2023-06-14T14:58:04;3.20;;;1.40;;
11064;SDS011;5585;52.530;7.320;2023-06-14T15:00:32;1.70;;;1.30;;
11064;SDS011;5585;52.530;7.320;2023-06-14T15:02:59;2.25;;;1.30;;
11064;SDS011;5585;52.530;7.320;2023-06-14T15:05:25;1.77;;;1.40;;
11064;SDS011;5585;52.530;7.320;2023-06-14T15:07:52;1.70;;;1.55;;
11064;SDS011;5585;52.530;7.320;2023-06-14T15:10:18;1.50;;;1.30;;